Wakefield, MI (49968)

1:26 AM CST on January 24, 2017 (GMT -0600)
Sunday Lake | | Change Station

Elev 1600 ft 46.48 °N, 89.95 °W | Updated 4 seconds ago

Overcast
Overcast
32.7 °F
Feels Like 33 °F
N
0.0
Wind Variable Wind from SE
Gusts 0.0 mph

Today
High -- | Low -- °F
--% Chance of Precip.
Yesterday
High -- | Low -- °F
Precip. -- in
Pressure 29.84 in
Visibility 10.0 miles
Clouds Overcast 400 ft
Windchill 33 °F
Dew Point 32 °F
Humidity 98%
Rainfall 0.00 in
Snow Depth Not available.
7:31 AM 4:52 PM
Waning Crescent, 13% visible
METAR KIWD 240656Z AUTO 25005KT 10SM OVC004 01/01 A2980 RMK AO2 SLP104 T00110006 FZRANO
Pressure 29.84 in
Visibility 10.0 miles
Clouds Overcast 400 ft
Windchill 33 °F
Dew Point 32 °F
Humidity 98%
Rainfall 0.00 in
Snow Depth Not available.
7:31 AM 4:52 PM
Waning Crescent, 13% visible
METAR KIWD 240656Z AUTO 25005KT 10SM OVC004 01/01 A2980 RMK AO2 SLP104 T00110006 FZRANO

Get Your Daily Forecast Email!

Thanks for signing up!

Be on the lookout for a verification email in your inbox.

You'll start receiving the daily forecast at 8 AM.

×

10-Day Weather Forecast

Almanac

Astronomy

Jan. 24, 2017 Rise Set
Actual Time
Civil Twilight
Nautical Twilight
Astronomical Twilight
Moon
Length of Visible Light
Length of Day
Tomorrow will be .
, % of the Moon is Illuminated

Today's Extremes

State Highs State Lows

Community

WunderPhotos

Upload Photos

1,962,540 photos uploaded!

WunderBlog® & News

Nearby

Air Quality

  Air Quality AQ Index Pollutant
Not available.

Snow Depth

Station Depth Elevation

Earthquake Activity

City Distance Mag. Time & Date
Minimum magnitude displayed is 2.5.

Coastal Water Temperatures

Place Temperature

Stations

Nearby Weather Stations

Station Location Temp. Windchill Dew Point Humidity Wind Precip. Elev Updated Type
                   

Watches & Warnings

There are currently no watches in effect.